createdAt,value
2023-05-05T00:00:16.728Z,95370.00
2023-05-05T00:01:16.760Z,95370.00
2023-05-05T00:02:16.782Z,95370.00
2023-05-05T00:03:16.803Z,95368.00
2023-05-05T00:04:16.797Z,95366.00
2023-05-05T00:05:16.727Z,95368.00
2023-05-05T00:06:16.721Z,95366.00
2023-05-05T00:07:16.724Z,95366.00
2023-05-05T00:08:16.734Z,95366.00
2023-05-05T00:09:16.718Z,95366.00
2023-05-05T00:10:16.692Z,95366.00
2023-05-05T00:11:16.731Z,95366.00
2023-05-05T00:12:16.747Z,95364.00
2023-05-05T00:13:16.727Z,95362.00
2023-05-05T00:14:16.701Z,95362.00
2023-05-05T00:15:16.722Z,95366.00
2023-05-05T00:16:16.760Z,95364.00
2023-05-05T00:17:16.803Z,95364.00
2023-05-05T00:18:16.703Z,95366.00
2023-05-05T00:19:16.731Z,95364.00
2023-05-05T00:20:16.732Z,95368.00
2023-05-05T00:21:16.740Z,95366.00
2023-05-05T00:22:16.858Z,95370.00
2023-05-05T00:23:16.736Z,95368.00
2023-05-05T00:24:16.731Z,95366.00
2023-05-05T00:25:16.763Z,95366.00
2023-05-05T00:26:16.783Z,95368.00
2023-05-05T00:27:16.806Z,95366.00
2023-05-05T00:28:16.833Z,95368.00
2023-05-05T00:29:16.836Z,95364.00
2023-05-05T00:30:16.826Z,95366.00
2023-05-05T00:31:16.903Z,95364.00
2023-05-05T00:32:16.906Z,95364.00
2023-05-05T00:33:16.928Z,95366.00
2023-05-05T00:34:16.940Z,95366.00
2023-05-05T00:35:16.992Z,95370.00
2023-05-05T00:36:17.022Z,95372.00
2023-05-05T00:37:17.075Z,95370.00
2023-05-05T00:38:17.086Z,95372.00
2023-05-05T00:39:17.124Z,95368.00
2023-05-05T00:40:17.175Z,95368.00
2023-05-05T00:41:17.176Z,95368.00
2023-05-05T00:42:17.177Z,95370.00
2023-05-05T00:43:17.188Z,95370.00
2023-05-05T00:44:17.205Z,95368.00
2023-05-05T00:45:17.156Z,95372.00
2023-05-05T00:46:17.192Z,95374.00
2023-05-05T00:47:17.202Z,95370.00
2023-05-05T00:48:17.210Z,95374.00
2023-05-05T00:49:17.241Z,95370.00
2023-05-05T00:50:17.185Z,95372.00
2023-05-05T00:51:17.212Z,95370.00
2023-05-05T00:52:17.238Z,95370.00
2023-05-05T00:53:17.225Z,95368.00
2023-05-05T00:54:17.190Z,95370.00
2023-05-05T00:55:17.208Z,95370.00
2023-05-05T00:56:17.226Z,95368.00
2023-05-05T00:57:17.207Z,95370.00
2023-05-05T00:58:17.203Z,95368.00
2023-05-05T00:59:17.212Z,95368.00
2023-05-05T01:00:17.175Z,95370.00
2023-05-05T01:01:17.251Z,95372.00
2023-05-05T01:02:17.183Z,95370.00
2023-05-05T01:03:17.322Z,95366.00
2023-05-05T01:04:17.201Z,95370.00
2023-05-05T01:05:17.180Z,95368.00
2023-05-05T01:06:17.180Z,95366.00
2023-05-05T01:07:17.163Z,95366.00
2023-05-05T01:08:17.147Z,95366.00
2023-05-05T01:09:17.178Z,95364.00
2023-05-05T01:10:20.306Z,95366.00
2023-05-05T01:11:17.192Z,95362.00
2023-05-05T01:12:17.182Z,95364.00
2023-05-05T01:13:17.198Z,95362.00
2023-05-05T01:14:17.175Z,95362.00
2023-05-05T01:15:17.150Z,95362.00
2023-05-05T01:16:17.176Z,95362.00
2023-05-05T01:17:17.124Z,95364.00
2023-05-05T01:18:17.110Z,95362.00
2023-05-05T01:19:17.137Z,95364.00
2023-05-05T01:20:17.102Z,95362.00
2023-05-05T01:21:17.119Z,95360.00
2023-05-05T01:22:17.104Z,95362.00
2023-05-05T01:23:17.119Z,95364.00
2023-05-05T01:24:17.109Z,95362.00
2023-05-05T01:25:17.082Z,95364.00
2023-05-05T01:26:17.082Z,95366.00
2023-05-05T01:27:17.053Z,95368.00
2023-05-05T01:28:17.071Z,95368.00
2023-05-05T01:29:17.115Z,95368.00
2023-05-05T01:30:17.047Z,95370.00
2023-05-05T01:31:17.120Z,95370.00
2023-05-05T01:32:17.035Z,95368.00
2023-05-05T01:33:17.047Z,95366.00
2023-05-05T01:34:17.026Z,95370.00
2023-05-05T01:35:16.992Z,95368.00
2023-05-05T01:36:17.007Z,95374.00
2023-05-05T01:37:16.989Z,95374.00
2023-05-05T01:38:17.002Z,95372.00
2023-05-05T01:39:17.025Z,95374.00
2023-05-05T01:40:16.992Z,95374.00
2023-05-05T01:41:16.991Z,95374.00
2023-05-05T01:42:16.962Z,95372.00
2023-05-05T01:43:16.981Z,95374.00
2023-05-05T01:44:16.956Z,95376.00
2023-05-05T01:45:16.942Z,95374.00
2023-05-05T01:46:16.985Z,95374.00
2023-05-05T01:47:17.011Z,95374.00
2023-05-05T01:48:16.898Z,95374.00
2023-05-05T01:49:16.927Z,95378.00
2023-05-05T01:50:16.922Z,95376.00
2023-05-05T01:51:17.030Z,95378.00
2023-05-05T01:52:17.547Z,95374.00
2023-05-05T01:53:16.894Z,95376.00
2023-05-05T01:54:16.896Z,95374.00
2023-05-05T01:55:16.897Z,95374.00
2023-05-05T01:56:16.877Z,95374.00
2023-05-05T01:57:16.851Z,95376.00
2023-05-05T01:58:16.846Z,95378.00
2023-05-05T01:59:16.865Z,95380.00
2023-05-05T02:00:16.815Z,95382.00
2023-05-05T02:01:16.880Z,95378.00
2023-05-05T02:02:16.824Z,95380.00
2023-05-05T02:03:16.945Z,95378.00
2023-05-05T02:04:16.816Z,95376.00
2023-05-05T02:05:16.823Z,95374.00
2023-05-05T02:06:16.812Z,95380.00
2023-05-05T02:07:16.798Z,95380.00
2023-05-05T02:08:16.806Z,95380.00
2023-05-05T02:09:16.811Z,95382.00
2023-05-05T02:10:16.779Z,95382.00
2023-05-05T02:11:16.798Z,95382.00
2023-05-05T02:12:16.750Z,95382.00
2023-05-05T02:13:16.935Z,95384.00
2023-05-05T02:14:16.767Z,95384.00
2023-05-05T02:15:16.761Z,95386.00
2023-05-05T02:16:16.911Z,95388.00
2023-05-05T02:17:16.720Z,95388.00
2023-05-05T02:18:16.699Z,95390.00
2023-05-05T02:19:16.735Z,95388.00
2023-05-05T02:20:16.746Z,95390.00
2023-05-05T02:21:16.710Z,95388.00
2023-05-05T02:22:16.708Z,95388.00
2023-05-05T02:23:16.684Z,95388.00
2023-05-05T02:24:16.707Z,95390.00
2023-05-05T02:25:16.660Z,95390.00
2023-05-05T02:26:16.685Z,95388.00
2023-05-05T02:27:16.646Z,95392.00
2023-05-05T02:28:16.645Z,95392.00
2023-05-05T02:29:16.662Z,95390.00
2023-05-05T02:30:16.670Z,95394.00
2023-05-05T02:31:16.688Z,95392.00
2023-05-05T02:32:16.631Z,95392.00
2023-05-05T02:33:16.623Z,95390.00
2023-05-05T02:34:16.626Z,95390.00
2023-05-05T02:35:16.611Z,95388.00
2023-05-05T02:36:16.606Z,95388.00
2023-05-05T02:37:16.587Z,95388.00
2023-05-05T02:38:16.570Z,95388.00
2023-05-05T02:39:16.590Z,95392.00
2023-05-05T02:40:16.595Z,95394.00
2023-05-05T02:41:16.753Z,95396.00
2023-05-05T02:42:16.567Z,95396.00
2023-05-05T02:43:16.595Z,95394.00
2023-05-05T02:44:16.546Z,95392.00
2023-05-05T02:45:16.526Z,95392.00
2023-05-05T02:46:16.605Z,95394.00
2023-05-05T02:47:16.518Z,95394.00
2023-05-05T02:48:16.523Z,95392.00
2023-05-05T02:49:16.529Z,95397.00
2023-05-05T02:50:16.494Z,95397.00
2023-05-05T02:51:16.486Z,95399.00
2023-05-05T02:52:16.472Z,95397.00
2023-05-05T02:53:16.462Z,95399.00
2023-05-05T02:54:16.489Z,95401.00
2023-05-05T02:55:16.464Z,95397.00
2023-05-05T02:56:16.442Z,95399.00
2023-05-05T02:57:16.432Z,95397.00
2023-05-05T02:58:16.448Z,95399.00
2023-05-05T02:59:16.615Z,95397.00
2023-05-05T03:00:16.417Z,95396.00
2023-05-05T03:01:16.425Z,95396.00
2023-05-05T03:02:16.403Z,95396.00
2023-05-05T03:03:16.519Z,95399.00
2023-05-05T03:04:16.397Z,95399.00
2023-05-05T03:05:16.367Z,95397.00
2023-05-05T03:06:16.553Z,95399.00
2023-05-05T03:07:16.386Z,95401.00
2023-05-05T03:08:16.345Z,95399.00
2023-05-05T03:09:16.353Z,95399.00
2023-05-05T03:10:16.341Z,95399.00
2023-05-05T03:11:16.373Z,95399.00
2023-05-05T03:12:16.398Z,95396.00
2023-05-05T03:13:16.331Z,95397.00
2023-05-05T03:14:16.342Z,95396.00
2023-05-05T03:15:16.306Z,95397.00
2023-05-05T03:16:16.340Z,95397.00
2023-05-05T03:17:16.295Z,95396.00
2023-05-05T03:18:16.295Z,95399.00
2023-05-05T03:19:16.411Z,95399.00
2023-05-05T03:20:16.297Z,95399.00
2023-05-05T03:21:16.284Z,95399.00
2023-05-05T03:22:16.278Z,95399.00
2023-05-05T03:23:16.276Z,95399.00
2023-05-05T03:24:16.236Z,95397.00
2023-05-05T03:25:16.351Z,95396.00
2023-05-05T03:26:16.260Z,95401.00
2023-05-05T03:27:16.239Z,95399.00
2023-05-05T03:28:16.257Z,95399.00
2023-05-05T03:29:16.235Z,95396.00
2023-05-05T03:30:16.210Z,95401.00
2023-05-05T03:31:16.199Z,95401.00
2023-05-05T03:32:16.181Z,95401.00
2023-05-05T03:33:16.308Z,95401.00
2023-05-05T03:34:16.287Z,95403.00
2023-05-05T03:35:16.326Z,95401.00
2023-05-05T03:36:16.389Z,95403.00
2023-05-05T03:37:16.433Z,95403.00
2023-05-05T03:38:16.471Z,95399.00
2023-05-05T03:39:16.492Z,95401.00
2023-05-05T03:40:16.576Z,95401.00
2023-05-05T03:41:16.596Z,95405.00
2023-05-05T03:42:16.656Z,95403.00
2023-05-05T03:43:16.710Z,95403.00
2023-05-05T03:44:16.731Z,95403.00
2023-05-05T03:45:16.781Z,95405.00
2023-05-05T03:46:16.821Z,95401.00
2023-05-05T03:47:16.857Z,95403.00
2023-05-05T03:48:16.841Z,95401.00
2023-05-05T03:49:16.867Z,95399.00
2023-05-05T03:50:16.879Z,95399.00
2023-05-05T03:51:16.873Z,95399.00
2023-05-05T03:52:16.887Z,95397.00
2023-05-05T03:53:16.885Z,95396.00
2023-05-05T03:54:16.886Z,95394.00
2023-05-05T03:55:16.859Z,95396.00
2023-05-05T03:56:16.898Z,95396.00
2023-05-05T03:57:16.892Z,95394.00
2023-05-05T03:58:16.902Z,95394.00
2023-05-05T03:59:16.866Z,95394.00
2023-05-05T04:00:16.877Z,95396.00
2023-05-05T04:01:16.905Z,95394.00
2023-05-05T04:02:18.575Z,95392.00
2023-05-05T04:03:17.111Z,95392.00
2023-05-05T04:04:16.966Z,95396.00
2023-05-05T04:05:16.876Z,95396.00
2023-05-05T04:06:16.882Z,95396.00
2023-05-05T04:07:16.881Z,95396.00
2023-05-05T04:08:16.926Z,95396.00
2023-05-05T04:09:16.925Z,95394.00
2023-05-05T04:10:16.914Z,95396.00
2023-05-05T04:11:16.930Z,95394.00
2023-05-05T04:12:16.989Z,95394.00
2023-05-05T04:13:17.131Z,95396.00
2023-05-05T04:14:17.024Z,95396.00
2023-05-05T04:15:16.989Z,95396.00
2023-05-05T04:16:17.013Z,95397.00
2023-05-05T04:17:16.994Z,95397.00
2023-05-05T04:18:16.966Z,95399.00
2023-05-05T04:19:17.046Z,95401.00
2023-05-05T04:20:17.003Z,95399.00
2023-05-05T04:21:17.077Z,95401.00
2023-05-05T04:22:17.083Z,95399.00
2023-05-05T04:23:17.142Z,95401.00
2023-05-05T04:24:17.142Z,95403.00
2023-05-05T04:25:17.197Z,95401.00
2023-05-05T04:26:17.267Z,95401.00
2023-05-05T04:27:17.330Z,95399.00
2023-05-05T04:28:18.227Z,95399.00
2023-05-05T04:29:17.416Z,95403.00
2023-05-05T04:30:17.461Z,95405.00
2023-05-05T04:31:17.510Z,95403.00
2023-05-05T04:32:17.591Z,95405.00
2023-05-05T04:33:17.628Z,95407.00
2023-05-05T04:34:17.720Z,95405.00
2023-05-05T04:35:17.839Z,95409.00
2023-05-05T04:36:17.845Z,95409.00
2023-05-05T04:37:17.909Z,95409.00
2023-05-05T04:38:17.997Z,95411.00
2023-05-05T04:39:18.017Z,95411.00
2023-05-05T04:40:18.117Z,95409.00
2023-05-05T04:41:18.130Z,95411.00
2023-05-05T04:42:18.223Z,95413.00
2023-05-05T04:43:18.261Z,95415.00
2023-05-05T04:44:18.327Z,95415.00
2023-05-05T04:45:18.403Z,95417.00
2023-05-05T04:46:18.502Z,95417.00
2023-05-05T04:47:18.516Z,95415.00
2023-05-05T04:48:18.599Z,95417.00
2023-05-05T04:49:18.641Z,95417.00
2023-05-05T04:50:18.725Z,95419.00
2023-05-05T04:51:18.745Z,95417.00
2023-05-05T04:52:18.817Z,95417.00
2023-05-05T04:53:18.876Z,95417.00
2023-05-05T04:54:18.961Z,95415.00
2023-05-05T04:55:19.006Z,95417.00
2023-05-05T04:56:19.072Z,95421.00
2023-05-05T04:57:19.146Z,95417.00
2023-05-05T04:58:19.182Z,95419.00
2023-05-05T04:59:19.270Z,95423.00
2023-05-05T05:00:19.289Z,95425.00
2023-05-05T05:01:26.432Z,95425.00
2023-05-05T05:02:19.440Z,95423.00
2023-05-05T05:03:19.453Z,95425.00
2023-05-05T05:04:19.338Z,95425.00
2023-05-05T05:05:19.366Z,95427.00
2023-05-05T05:06:19.352Z,95427.00
2023-05-05T05:07:19.351Z,95425.00
2023-05-05T05:08:19.345Z,95425.00
2023-05-05T05:09:19.332Z,95425.00
2023-05-05T05:10:19.317Z,95425.00
2023-05-05T05:11:19.321Z,95425.00
2023-05-05T05:12:19.288Z,95429.00
2023-05-05T05:13:19.385Z,95429.00
2023-05-05T05:14:19.309Z,95429.00
2023-05-05T05:15:19.281Z,95429.00
2023-05-05T05:16:19.295Z,95429.00
2023-05-05T05:17:19.283Z,95427.00
2023-05-05T05:18:19.275Z,95427.00
2023-05-05T05:19:19.276Z,95427.00
2023-05-05T05:20:19.261Z,95427.00
2023-05-05T05:21:19.246Z,95429.00
2023-05-05T05:22:19.337Z,95425.00
2023-05-05T05:23:19.239Z,95425.00
2023-05-05T05:24:19.248Z,95425.00
2023-05-05T05:25:19.210Z,95427.00
2023-05-05T05:26:19.215Z,95427.00
2023-05-05T05:27:19.195Z,95425.00
2023-05-05T05:28:19.218Z,95427.00
2023-05-05T05:29:19.201Z,95425.00
2023-05-05T05:30:19.159Z,95425.00
2023-05-05T05:31:19.208Z,95425.00
2023-05-05T05:32:19.640Z,95427.00
2023-05-05T05:33:19.164Z,95427.00
2023-05-05T05:34:19.153Z,95427.00
2023-05-05T05:35:19.182Z,95427.00
2023-05-05T05:36:19.190Z,95425.00
2023-05-05T05:37:20.212Z,95427.00
2023-05-05T05:38:19.180Z,95427.00
2023-05-05T05:39:19.117Z,95429.00
2023-05-05T05:40:19.167Z,95429.00
2023-05-05T05:41:19.194Z,95429.00
2023-05-05T05:42:19.169Z,95431.00
2023-05-05T05:43:19.091Z,95435.00
2023-05-05T05:44:19.115Z,95433.00
2023-05-05T05:45:26.040Z,95435.00
2023-05-05T05:46:19.731Z,95433.00
2023-05-05T05:47:19.169Z,95435.00
2023-05-05T05:48:19.075Z,95433.00
2023-05-05T05:49:19.052Z,95433.00
2023-05-05T05:50:19.064Z,95435.00
2023-05-05T05:51:19.077Z,95433.00
2023-05-05T05:52:19.150Z,95433.00
2023-05-05T05:53:19.039Z,95435.00
2023-05-05T05:54:19.013Z,95433.00
2023-05-05T05:55:19.032Z,95433.00
2023-05-05T05:56:18.986Z,95437.00
2023-05-05T05:57:19.033Z,95439.00
2023-05-05T05:58:18.969Z,95435.00
2023-05-05T05:59:18.968Z,95439.00
2023-05-05T06:00:18.952Z,95439.00
2023-05-05T06:01:18.999Z,95437.00
2023-05-05T06:02:18.972Z,95439.00
2023-05-05T06:03:19.122Z,95439.00
2023-05-05T06:04:18.982Z,95439.00
2023-05-05T06:05:18.955Z,95441.00
2023-05-05T06:06:18.928Z,95439.00
2023-05-05T06:07:18.926Z,95439.00
2023-05-05T06:08:18.938Z,95437.00
2023-05-05T06:09:18.911Z,95439.00
2023-05-05T06:10:28.056Z,95437.00
2023-05-05T06:11:19.932Z,95437.00
2023-05-05T06:12:18.927Z,95437.00
2023-05-05T06:13:18.904Z,95441.00
2023-05-05T06:14:20.104Z,95437.00
2023-05-05T06:15:18.863Z,95441.00
2023-05-05T06:16:18.912Z,95437.00
2023-05-05T06:17:18.853Z,95435.00
2023-05-05T06:18:18.923Z,95435.00
2023-05-05T06:19:18.844Z,95433.00
2023-05-05T06:20:18.920Z,95435.00
2023-05-05T06:21:18.893Z,95431.00
2023-05-05T06:22:18.927Z,95433.00
2023-05-05T06:23:18.986Z,95429.00
2023-05-05T06:24:19.044Z,95429.00
2023-05-05T06:25:19.131Z,95429.00
2023-05-05T06:26:19.193Z,95429.00
2023-05-05T06:27:19.251Z,95431.00
2023-05-05T06:28:19.668Z,95429.00
2023-05-05T06:29:19.395Z,95429.00
2023-05-05T06:30:19.430Z,95427.00
2023-05-05T06:31:19.568Z,95427.00
2023-05-05T06:32:19.576Z,95423.00
2023-05-05T06:33:19.624Z,95425.00
2023-05-05T06:34:19.704Z,95423.00
2023-05-05T06:35:19.736Z,95421.00
2023-05-05T06:36:19.854Z,95419.00
2023-05-05T06:37:19.897Z,95419.00
2023-05-05T06:38:19.925Z,95417.00
2023-05-05T06:39:20.019Z,95419.00
2023-05-05T06:40:20.033Z,95417.00
2023-05-05T06:41:20.137Z,95415.00
2023-05-05T06:42:20.155Z,95413.00
2023-05-05T06:43:20.256Z,95411.00
2023-05-05T06:44:20.288Z,95411.00
2023-05-05T06:45:20.345Z,95409.00
2023-05-05T06:46:20.581Z,95407.00
2023-05-05T06:47:20.489Z,95411.00
2023-05-05T06:48:20.725Z,95403.00
2023-05-05T06:49:20.616Z,95405.00
2023-05-05T06:50:20.706Z,95405.00
2023-05-05T06:51:20.710Z,95405.00
2023-05-05T06:52:20.780Z,95405.00
2023-05-05T06:53:21.217Z,95399.00
2023-05-05T06:54:20.924Z,95399.00
2023-05-05T06:55:20.963Z,95399.00
2023-05-05T06:56:21.048Z,95397.00
2023-05-05T06:57:21.098Z,95399.00
2023-05-05T06:58:21.261Z,95399.00
2023-05-05T06:59:21.196Z,95399.00
2023-05-05T07:00:21.277Z,95399.00
2023-05-05T07:01:21.314Z,95399.00
2023-05-05T07:02:21.333Z,95401.00
2023-05-05T07:03:21.447Z,95401.00
2023-05-05T07:04:21.427Z,95403.00
2023-05-05T07:05:21.463Z,95397.00
2023-05-05T07:06:21.553Z,95399.00
2023-05-05T07:07:21.570Z,95401.00
2023-05-05T07:08:21.592Z,95397.00
2023-05-05T07:09:21.682Z,95396.00
2023-05-05T07:10:21.702Z,95394.00
2023-05-05T07:11:21.702Z,95392.00
2023-05-05T07:12:21.764Z,95390.00
2023-05-05T07:13:21.771Z,95394.00
2023-05-05T07:14:24.260Z,95392.00
2023-05-05T07:15:28.750Z,95388.00
2023-05-05T07:16:22.869Z,95390.00
2023-05-05T07:17:21.790Z,95388.00
2023-05-05T07:18:21.821Z,95386.00
2023-05-05T07:19:21.750Z,95382.00
2023-05-05T07:20:21.771Z,95382.00
2023-05-05T07:21:21.763Z,95380.00
2023-05-05T07:22:21.725Z,95380.00
2023-05-05T07:23:21.728Z,95378.00
2023-05-05T07:24:21.788Z,95376.00
2023-05-05T07:25:21.731Z,95376.00
2023-05-05T07:26:21.768Z,95374.00
2023-05-05T07:27:21.752Z,95374.00
2023-05-05T07:28:21.692Z,95376.00
2023-05-05T07:29:21.712Z,95374.00
2023-05-05T07:30:22.069Z,95376.00
2023-05-05T07:31:21.740Z,95374.00
2023-05-05T07:32:21.802Z,95372.00
2023-05-05T07:33:21.759Z,95374.00
2023-05-05T07:34:21.756Z,95370.00
2023-05-05T07:35:21.832Z,95374.00
2023-05-05T07:36:21.876Z,95372.00
2023-05-05T07:37:21.973Z,95372.00
2023-05-05T07:38:22.025Z,95368.00
2023-05-05T07:39:25.695Z,95368.00
2023-05-05T07:40:22.075Z,95370.00
2023-05-05T07:41:22.062Z,95364.00
2023-05-05T07:42:22.080Z,95364.00
2023-05-05T07:43:22.062Z,95364.00
2023-05-05T07:44:22.042Z,95362.00
2023-05-05T07:45:22.034Z,95362.00
2023-05-05T07:46:22.117Z,95360.00
2023-05-05T07:47:22.089Z,95356.00
2023-05-05T07:48:22.042Z,95356.00
2023-05-05T07:49:21.997Z,95354.00
2023-05-05T07:50:22.029Z,95354.00
2023-05-05T07:51:21.969Z,95352.00
2023-05-05T07:52:33.118Z,95347.00
2023-05-05T07:53:22.989Z,95347.00
2023-05-05T07:54:21.995Z,95345.00
2023-05-05T07:55:21.956Z,95343.00
2023-05-05T07:56:21.988Z,95341.00
2023-05-05T07:57:22.685Z,95339.00
2023-05-05T07:58:21.933Z,95337.00
2023-05-05T07:59:21.922Z,95339.00
2023-05-05T08:00:21.930Z,95335.00
2023-05-05T08:01:21.919Z,95333.00
2023-05-05T08:02:22.128Z,95333.00
2023-05-05T08:03:22.031Z,95335.00
2023-05-05T08:04:21.968Z,95335.00
2023-05-05T08:05:21.930Z,95339.00
2023-05-05T08:06:21.883Z,95335.00
2023-05-05T08:07:21.945Z,95335.00
2023-05-05T08:08:21.993Z,95335.00
2023-05-05T08:09:22.043Z,95335.00
2023-05-05T08:10:22.140Z,95333.00
2023-05-05T08:11:22.209Z,95331.00
2023-05-05T08:12:22.228Z,95331.00
2023-05-05T08:13:22.316Z,95327.00
2023-05-05T08:14:22.390Z,95327.00
2023-05-05T08:15:22.492Z,95325.00
2023-05-05T08:16:22.565Z,95327.00
2023-05-05T08:17:22.618Z,95325.00
2023-05-05T08:18:22.727Z,95321.00
2023-05-05T08:19:29.373Z,95321.00
2023-05-05T08:20:23.710Z,95321.00
2023-05-05T08:21:22.666Z,95323.00
2023-05-05T08:22:22.696Z,95317.00
2023-05-05T08:23:22.673Z,95315.00
2023-05-05T08:24:22.753Z,95313.00
2023-05-05T08:25:22.661Z,95313.00
2023-05-05T08:26:22.620Z,95313.00
2023-05-05T08:27:23.256Z,95313.00
2023-05-05T08:28:22.637Z,95308.00
2023-05-05T08:29:22.604Z,95311.00
2023-05-05T08:30:22.598Z,95308.00
2023-05-05T08:31:22.753Z,95306.00
2023-05-05T08:32:22.579Z,95306.00
2023-05-05T08:33:22.732Z,95304.00
2023-05-05T08:34:22.789Z,95302.00
2023-05-05T08:35:22.581Z,95300.00
2023-05-05T08:36:22.594Z,95298.00
2023-05-05T08:37:22.686Z,95296.00
2023-05-05T08:38:22.563Z,95296.00
2023-05-05T08:39:22.568Z,95292.00
2023-05-05T08:40:22.725Z,95290.00
2023-05-05T08:41:22.542Z,95290.00
2023-05-05T08:42:36.157Z,95286.00
2023-05-05T08:43:23.542Z,95286.00
2023-05-05T08:44:22.553Z,95286.00
2023-05-05T08:45:22.545Z,95282.00
2023-05-05T08:46:22.652Z,95280.00
2023-05-05T08:47:22.540Z,95280.00
2023-05-05T08:48:22.772Z,95278.00
2023-05-05T08:49:22.544Z,95274.00
2023-05-05T08:50:22.677Z,95272.00
2023-05-05T08:51:22.531Z,95274.00
2023-05-05T08:52:22.691Z,95272.00
2023-05-05T08:53:22.719Z,95272.00
2023-05-05T08:54:22.719Z,95272.00
2023-05-05T08:55:22.782Z,95276.00
2023-05-05T08:56:22.818Z,95276.00
2023-05-05T08:57:22.896Z,95272.00
2023-05-05T08:58:59.678Z,95270.00
2023-05-05T08:59:59.682Z,95268.00
2023-05-05T09:00:59.663Z,95272.00
2023-05-05T09:01:59.653Z,95270.00
2023-05-05T09:03:00.030Z,95266.00
2023-05-05T09:03:59.634Z,95264.00
2023-05-05T09:04:59.639Z,95263.00
2023-05-05T09:05:59.604Z,95263.00
2023-05-05T09:06:59.647Z,95263.00
2023-05-05T09:07:59.892Z,95261.00
2023-05-05T09:08:59.753Z,95261.00
2023-05-05T09:09:59.601Z,95259.00
2023-05-05T09:10:59.563Z,95257.00
2023-05-05T09:11:59.576Z,95257.00
2023-05-05T09:12:59.695Z,95257.00
2023-05-05T09:13:59.561Z,95251.00
2023-05-05T09:14:59.594Z,95253.00
2023-05-05T09:16:00.410Z,95251.00
2023-05-05T09:16:59.615Z,95247.00
2023-05-05T09:17:59.566Z,95247.00
2023-05-05T09:18:59.526Z,95247.00
2023-05-05T09:19:59.557Z,95245.00
2023-05-05T09:20:59.744Z,95243.00
2023-05-05T09:21:59.724Z,95239.00
2023-05-05T09:22:59.544Z,95241.00
2023-05-05T09:24:07.442Z,95237.00
2023-05-05T09:25:00.485Z,95237.00
2023-05-05T09:25:59.486Z,95237.00
2023-05-05T09:26:59.482Z,95237.00
2023-05-05T09:27:59.459Z,95235.00
2023-05-05T09:28:59.486Z,95233.00
2023-05-05T09:29:59.470Z,95233.00
2023-05-05T09:30:59.523Z,95231.00
2023-05-05T09:31:59.464Z,95229.00
2023-05-05T09:32:59.571Z,95229.00
2023-05-05T09:33:59.914Z,95225.00
2023-05-05T09:34:59.453Z,95223.00
2023-05-05T09:35:59.408Z,95225.00
2023-05-05T09:36:59.415Z,95221.00
2023-05-05T09:37:59.508Z,95217.00
2023-05-05T09:38:59.436Z,95217.00
2023-05-05T09:39:59.363Z,95219.00
2023-05-05T09:40:59.360Z,95214.00
2023-05-05T09:41:59.384Z,95214.00
2023-05-05T09:42:59.360Z,95212.00
2023-05-05T09:43:59.386Z,95212.00
2023-05-05T09:44:59.993Z,95210.00
2023-05-05T09:45:59.448Z,95206.00
2023-05-05T09:46:59.493Z,95208.00
2023-05-05T09:48:00.610Z,95204.00
2023-05-05T09:48:59.883Z,95206.00
2023-05-05T09:49:59.640Z,95200.00
2023-05-05T09:50:59.716Z,95202.00
2023-05-05T09:51:59.777Z,95202.00
2023-05-05T09:52:59.818Z,95202.00
2023-05-05T09:54:00.500Z,95196.00
2023-05-05T09:54:59.943Z,95198.00
2023-05-05T09:56:00.019Z,95194.00
2023-05-05T09:57:00.163Z,95198.00
2023-05-05T09:58:00.202Z,95194.00
2023-05-05T09:59:00.525Z,95196.00
2023-05-05T10:00:00.258Z,95194.00
2023-05-05T10:01:00.396Z,95194.00
2023-05-05T10:02:00.433Z,95184.00
2023-05-05T10:03:00.432Z,95182.00
2023-05-05T10:04:00.447Z,95184.00
2023-05-05T10:05:02.282Z,95184.00
2023-05-05T10:06:00.570Z,95180.00
2023-05-05T10:07:00.616Z,95182.00
2023-05-05T10:08:00.705Z,95178.00
2023-05-05T10:09:00.739Z,95176.00
2023-05-05T10:10:00.956Z,95178.00
2023-05-05T10:11:00.913Z,95176.00
2023-05-05T10:12:00.929Z,95169.00
2023-05-05T10:13:00.951Z,95172.00
2023-05-05T10:14:00.997Z,95171.00
2023-05-05T10:15:00.997Z,95171.00
2023-05-05T10:16:01.030Z,95167.00
2023-05-05T10:17:01.065Z,95165.00
2023-05-05T10:18:07.415Z,95161.00
2023-05-05T10:19:02.055Z,95161.00
2023-05-05T10:20:01.047Z,95157.00
2023-05-05T10:21:01.073Z,95155.00
2023-05-05T10:22:01.054Z,95155.00
2023-05-05T10:23:01.030Z,95155.00
2023-05-05T10:24:01.039Z,95153.00
2023-05-05T10:25:01.004Z,95155.00
2023-05-05T10:26:01.085Z,95151.00
2023-05-05T10:27:01.003Z,95153.00
2023-05-05T10:28:00.987Z,95149.00
2023-05-05T10:29:00.993Z,95149.00
2023-05-05T10:30:01.024Z,95145.00
2023-05-05T10:31:00.971Z,95141.00
2023-05-05T10:32:10.254Z,95143.00
2023-05-05T10:33:18.217Z,95141.00
2023-05-05T10:34:02.078Z,95135.00
2023-05-05T10:35:00.938Z,95133.00
2023-05-05T10:36:00.970Z,95133.00
2023-05-05T10:37:00.990Z,95129.00
2023-05-05T10:38:00.936Z,95125.00
2023-05-05T10:39:01.381Z,95124.00
2023-05-05T10:40:00.924Z,95122.00
2023-05-05T10:41:00.935Z,95120.00
2023-05-05T10:42:00.961Z,95118.00
2023-05-05T10:43:00.898Z,95120.00
2023-05-05T10:44:04.330Z,95114.00
2023-05-05T10:45:01.012Z,95116.00
2023-05-05T10:46:01.040Z,95114.00
2023-05-05T10:47:00.890Z,95110.00
2023-05-05T10:48:00.910Z,95112.00
2023-05-05T10:49:00.960Z,95108.00
2023-05-05T10:50:00.848Z,95106.00
2023-05-05T10:51:00.876Z,95104.00
2023-05-05T10:52:00.868Z,95104.00
2023-05-05T10:53:00.813Z,95098.00
2023-05-05T10:54:00.919Z,95098.00
2023-05-05T10:55:00.825Z,95100.00
2023-05-05T10:56:00.827Z,95098.00
2023-05-05T10:57:00.788Z,95096.00
2023-05-05T10:58:00.817Z,95094.00
2023-05-05T10:59:01.024Z,95092.00
2023-05-05T11:00:00.809Z,95090.00
2023-05-05T11:01:00.810Z,95090.00
2023-05-05T11:02:00.770Z,95085.00
2023-05-05T11:03:00.880Z,95085.00
2023-05-05T11:04:00.815Z,95083.00
2023-05-05T11:05:00.741Z,95078.00
2023-05-05T11:06:00.757Z,95080.00
2023-05-05T11:07:00.722Z,95080.00
2023-05-05T11:08:00.737Z,95077.00
2023-05-05T11:09:00.713Z,95071.00
2023-05-05T11:10:00.728Z,95073.00
2023-05-05T11:11:00.721Z,95067.00
2023-05-05T11:12:00.693Z,95067.00
2023-05-05T11:13:00.732Z,95065.00
2023-05-05T11:14:00.707Z,95061.00
2023-05-05T11:15:00.725Z,95055.00
2023-05-05T11:16:00.694Z,95053.00
2023-05-05T11:17:00.817Z,95047.00
2023-05-05T11:18:01.889Z,95051.00
2023-05-05T11:19:00.761Z,95053.00
2023-05-05T11:20:00.780Z,95045.00
2023-05-05T11:21:00.741Z,95045.00
2023-05-05T11:22:00.716Z,95041.00
2023-05-05T11:23:00.739Z,95043.00
2023-05-05T11:24:00.705Z,95039.00
2023-05-05T11:25:00.716Z,95043.00
2023-05-05T11:26:00.704Z,95039.00
2023-05-05T11:27:00.721Z,95034.00
2023-05-05T11:28:00.695Z,95036.00
2023-05-05T11:29:00.689Z,95036.00
2023-05-05T11:30:00.981Z,95032.00
2023-05-05T11:31:00.695Z,95028.00
2023-05-05T11:32:00.688Z,95030.00
2023-05-05T11:33:01.441Z,95024.00
2023-05-05T11:34:00.747Z,95026.00
2023-05-05T11:35:00.967Z,95026.00
2023-05-05T11:36:01.765Z,95022.00
2023-05-05T11:37:00.696Z,95016.00
2023-05-05T11:38:00.664Z,95016.00
2023-05-05T11:39:00.694Z,95016.00
2023-05-05T11:40:00.683Z,95014.00
2023-05-05T11:41:00.652Z,95014.00
2023-05-05T11:42:03.836Z,95012.00
2023-05-05T11:43:01.643Z,95004.00
2023-05-05T11:44:00.662Z,95010.00
2023-05-05T11:45:00.667Z,95006.00